TimePST,TemperatureF,Dew PointF,Humidity,Sea Level PressureIn,VisibilityMPH,Wind Direction,Wind SpeedMPH,Gust SpeedMPH,PrecipitationIn,Events,Conditions,WindDirDegrees,DateUTC
12:54 AM,44.1,24.1,45,30.20,10.0,ESE,4.6,-,N/A,,Clear,110,2012-01-14 08:54:00
1:54 AM,45.0,21.9,40,30.19,10.0,East,4.6,-,N/A,,Clear,100,2012-01-14 09:54:00
2:54 AM,43.0,23.0,45,30.18,10.0,East,4.6,-,N/A,,Clear,100,2012-01-14 10:54:00
3:54 AM,46.0,21.9,39,30.17,10.0,East,8.1,-,N/A,,Clear,100,2012-01-14 11:54:00
4:54 AM,45.0,21.0,39,30.17,10.0,East,8.1,-,N/A,,Clear,90,2012-01-14 12:54:00
5:54 AM,45.0,21.0,39,30.18,10.0,Calm,Calm,-,N/A,,Clear,0,2012-01-14 13:54:00
6:54 AM,42.1,21.9,45,30.18,10.0,Calm,Calm,-,N/A,,Clear,0,2012-01-14 14:54:00
7:54 AM,41.0,21.9,47,30.19,10.0,Calm,Calm,-,N/A,,Clear,0,2012-01-14 15:54:00
8:54 AM,50.0,25.0,38,30.21,10.0,East,3.5,-,N/A,,Clear,90,2012-01-14 16:54:00
9:54 AM,63.0,21.0,20,30.22,10.0,Calm,Calm,-,N/A,,Clear,0,2012-01-14 17:54:00
10:54 AM,66.9,28.0,23,30.21,10.0,WNW,3.5,-,N/A,,Clear,300,2012-01-14 18:54:00
11:54 AM,63.0,32.0,31,30.19,10.0,West,3.5,-,N/A,,Clear,270,2012-01-14 19:54:00
12:54 PM,63.0,33.1,33,30.16,10.0,NNW,4.6,-,N/A,,Clear,340,2012-01-14 20:54:00
1:54 PM,62.6,33.8,34,30.10,10.0,NW,3.5,-,N/A,,Clear,310,2012-01-14 21:54:00
2:54 PM,66.9,34.0,30,30.13,10.0,NNW,4.6,-,N/A,,Clear,340,2012-01-14 22:54:00
3:54 PM,66.0,28.9,25,30.13,9.0,Calm,Calm,-,N/A,,Clear,0,2012-01-14 23:54:00
4:54 PM,57.0,46.0,67,30.14,10.0,ENE,5.8,-,N/A,,Clear,70,2012-01-15 00:54:00
5:54 PM,52.0,46.9,83,30.15,10.0,East,4.6,-,N/A,,Clear,90,2012-01-15 01:54:00
6:54 PM,48.9,43.0,80,30.15,7.0,East,8.1,-,N/A,,Scattered Clouds,90,2012-01-15 02:54:00
7:02 PM,50.0,46.4,87,30.11,1.0,East,6.9,-,N/A,,Mostly Cloudy,100,2012-01-15 03:02:00
7:41 PM,50.0,48.2,94,30.11,0.5,East,5.8,-,N/A,Fog,Fog,100,2012-01-15 03:41:00
7:49 PM,48.2,48.2,100,30.11,0.2,ESE,5.8,-,N/A,Fog,Fog,120,2012-01-15 03:49:00
7:54 PM,48.9,46.9,93,30.15,3.0,ESE,4.6,-,N/A,,Scattered Clouds,110,2012-01-15 03:54:00
8:01 PM,48.2,46.4,93,30.11,2.0,ESE,4.6,-,N/A,,Mostly Cloudy,110,2012-01-15 04:01:00
8:05 PM,48.2,46.4,93,30.11,7.0,ESE,6.9,-,N/A,,Scattered Clouds,110,2012-01-15 04:05:00
8:54 PM,48.0,43.0,83,30.16,10.0,ESE,4.6,-,N/A,,Clear,110,2012-01-15 04:54:00
9:54 PM,44.1,36.0,73,30.15,10.0,Calm,Calm,-,N/A,,Clear,0,2012-01-15 05:54:00
10:54 PM,44.1,33.1,65,30.15,10.0,Calm,Calm,-,N/A,,Clear,0,2012-01-15 06:54:00
11:54 PM,44.1,33.1,65,30.15,10.0,ESE,5.8,-,N/A,,Clear,110,2012-01-15 07:54:00